sensor_id;sensor_type;location;lat;lon;timestamp;P1;durP1;ratioP1;P2;durP2;ratioP2
18857;SDS011;9558;50.178;8.370;2024-03-08T00:00:49;11.05;;;5.85;;
18857;SDS011;9558;50.178;8.370;2024-03-08T00:03:36;14.60;;;5.43;;
18857;SDS011;9558;50.178;8.370;2024-03-08T00:06:25;13.65;;;6.18;;
18857;SDS011;9558;50.178;8.370;2024-03-08T00:12:01;12.27;;;4.85;;
18857;SDS011;9558;50.178;8.370;2024-03-08T00:17:34;13.90;;;5.57;;
18857;SDS011;9558;50.178;8.370;2024-03-08T00:20:21;12.68;;;5.60;;
18857;SDS011;9558;50.178;8.370;2024-03-08T00:23:08;13.13;;;5.78;;
18857;SDS011;9558;50.178;8.370;2024-03-08T00:25:57;11.25;;;4.75;;
18857;SDS011;9558;50.178;8.370;2024-03-08T00:28:44;13.93;;;5.95;;
18857;SDS011;9558;50.178;8.370;2024-03-08T00:31:31;13.52;;;6.32;;
18857;SDS011;9558;50.178;8.370;2024-03-08T00:34:18;13.18;;;4.60;;
18857;SDS011;9558;50.178;8.370;2024-03-08T00:37:05;16.98;;;6.88;;
18857;SDS011;9558;50.178;8.370;2024-03-08T00:39:52;15.32;;;5.90;;
18857;SDS011;9558;50.178;8.370;2024-03-08T00:42:40;24.38;;;7.10;;
18857;SDS011;9558;50.178;8.370;2024-03-08T00:45:29;14.85;;;5.97;;
18857;SDS011;9558;50.178;8.370;2024-03-08T00:48:16;13.40;;;6.28;;
18857;SDS011;9558;50.178;8.370;2024-03-08T00:53:50;21.08;;;6.95;;
18857;SDS011;9558;50.178;8.370;2024-03-08T00:59:25;16.13;;;5.45;;
18857;SDS011;9558;50.178;8.370;2024-03-08T01:02:12;9.68;;;5.55;;
18857;SDS011;9558;50.178;8.370;2024-03-08T01:04:59;13.95;;;5.65;;
18857;SDS011;9558;50.178;8.370;2024-03-08T01:07:46;11.80;;;5.00;;
18857;SDS011;9558;50.178;8.370;2024-03-08T01:13:20;13.60;;;5.38;;
18857;SDS011;9558;50.178;8.370;2024-03-08T01:16:08;10.65;;;4.68;;
18857;SDS011;9558;50.178;8.370;2024-03-08T01:18:55;12.30;;;5.32;;
18857;SDS011;9558;50.178;8.370;2024-03-08T01:21:42;10.32;;;3.83;;
18857;SDS011;9558;50.178;8.370;2024-03-08T01:27:16;10.85;;;5.32;;
18857;SDS011;9558;50.178;8.370;2024-03-08T01:32:51;9.88;;;4.90;;
18857;SDS011;9558;50.178;8.370;2024-03-08T01:35:39;8.30;;;4.10;;
18857;SDS011;9558;50.178;8.370;2024-03-08T01:38:26;12.48;;;4.88;;
18857;SDS011;9558;50.178;8.370;2024-03-08T01:41:13;12.60;;;5.85;;
18857;SDS011;9558;50.178;8.370;2024-03-08T01:44:03;14.38;;;5.90;;
18857;SDS011;9558;50.178;8.370;2024-03-08T01:46:52;10.32;;;4.97;;
18857;SDS011;9558;50.178;8.370;2024-03-08T01:49:41;15.82;;;5.85;;
18857;SDS011;9558;50.178;8.370;2024-03-08T01:52:28;15.23;;;5.22;;
18857;SDS011;9558;50.178;8.370;2024-03-08T01:55:16;14.18;;;5.50;;
18857;SDS011;9558;50.178;8.370;2024-03-08T01:58:04;13.55;;;6.22;;
18857;SDS011;9558;50.178;8.370;2024-03-08T02:00:51;14.15;;;5.50;;
18857;SDS011;9558;50.178;8.370;2024-03-08T02:03:39;13.00;;;5.53;;
18857;SDS011;9558;50.178;8.370;2024-03-08T02:06:30;17.85;;;5.75;;
18857;SDS011;9558;50.178;8.370;2024-03-08T02:09:17;13.98;;;5.75;;
18857;SDS011;9558;50.178;8.370;2024-03-08T02:14:51;9.05;;;4.63;;
18857;SDS011;9558;50.178;8.370;2024-03-08T02:17:41;9.73;;;5.68;;
18857;SDS011;9558;50.178;8.370;2024-03-08T02:20:30;11.82;;;5.32;;
18857;SDS011;9558;50.178;8.370;2024-03-08T02:23:16;10.48;;;4.50;;
18857;SDS011;9558;50.178;8.370;2024-03-08T02:26:04;12.68;;;6.22;;
18857;SDS011;9558;50.178;8.370;2024-03-08T02:28:52;10.45;;;5.50;;
18857;SDS011;9558;50.178;8.370;2024-03-08T02:31:39;14.05;;;5.55;;
18857;SDS011;9558;50.178;8.370;2024-03-08T02:34:26;11.85;;;5.22;;
18857;SDS011;9558;50.178;8.370;2024-03-08T02:37:15;15.52;;;6.68;;
18857;SDS011;9558;50.178;8.370;2024-03-08T02:40:02;11.55;;;5.38;;
18857;SDS011;9558;50.178;8.370;2024-03-08T02:42:50;14.23;;;6.18;;
18857;SDS011;9558;50.178;8.370;2024-03-08T02:45:38;11.57;;;5.50;;
18857;SDS011;9558;50.178;8.370;2024-03-08T02:48:25;17.50;;;6.03;;
18857;SDS011;9558;50.178;8.370;2024-03-08T02:51:12;16.52;;;6.10;;
18857;SDS011;9558;50.178;8.370;2024-03-08T02:56:47;17.70;;;6.05;;
18857;SDS011;9558;50.178;8.370;2024-03-08T02:59:36;15.15;;;6.55;;
18857;SDS011;9558;50.178;8.370;2024-03-08T03:02:25;10.05;;;5.35;;
18857;SDS011;9558;50.178;8.370;2024-03-08T03:05:12;17.95;;;5.85;;
18857;SDS011;9558;50.178;8.370;2024-03-08T03:07:59;13.70;;;5.78;;
18857;SDS011;9558;50.178;8.370;2024-03-08T03:10:48;13.10;;;5.88;;
18857;SDS011;9558;50.178;8.370;2024-03-08T03:13:35;17.42;;;6.15;;
18857;SDS011;9558;50.178;8.370;2024-03-08T03:16:22;12.85;;;6.30;;
18857;SDS011;9558;50.178;8.370;2024-03-08T03:19:09;8.73;;;4.10;;
18857;SDS011;9558;50.178;8.370;2024-03-08T03:21:56;11.98;;;4.75;;
18857;SDS011;9558;50.178;8.370;2024-03-08T03:27:32;10.88;;;5.38;;
18857;SDS011;9558;50.178;8.370;2024-03-08T03:30:20;9.63;;;4.50;;
18857;SDS011;9558;50.178;8.370;2024-03-08T03:33:07;10.85;;;5.97;;
18857;SDS011;9558;50.178;8.370;2024-03-08T03:35:55;12.55;;;4.18;;
18857;SDS011;9558;50.178;8.370;2024-03-08T03:38:42;14.77;;;5.72;;
18857;SDS011;9558;50.178;8.370;2024-03-08T03:41:29;12.00;;;5.00;;
18857;SDS011;9558;50.178;8.370;2024-03-08T03:44:18;15.25;;;5.88;;
18857;SDS011;9558;50.178;8.370;2024-03-08T03:47:05;11.45;;;5.18;;
18857;SDS011;9558;50.178;8.370;2024-03-08T03:49:52;20.30;;;6.72;;
18857;SDS011;9558;50.178;8.370;2024-03-08T03:52:39;17.15;;;5.32;;
18857;SDS011;9558;50.178;8.370;2024-03-08T03:55:27;15.23;;;6.47;;
18857;SDS011;9558;50.178;8.370;2024-03-08T03:58:14;13.35;;;5.78;;
18857;SDS011;9558;50.178;8.370;2024-03-08T04:01:03;13.18;;;5.22;;
18857;SDS011;9558;50.178;8.370;2024-03-08T04:03:51;12.85;;;5.13;;
18857;SDS011;9558;50.178;8.370;2024-03-08T04:06:38;14.18;;;5.95;;
18857;SDS011;9558;50.178;8.370;2024-03-08T04:09:25;19.75;;;6.40;;
18857;SDS011;9558;50.178;8.370;2024-03-08T04:12:12;10.38;;;5.53;;
18857;SDS011;9558;50.178;8.370;2024-03-08T04:15:01;14.52;;;6.10;;
18857;SDS011;9558;50.178;8.370;2024-03-08T04:17:49;11.07;;;5.85;;
18857;SDS011;9558;50.178;8.370;2024-03-08T04:20:36;15.43;;;5.78;;
18857;SDS011;9558;50.178;8.370;2024-03-08T04:23:25;13.02;;;5.90;;
18857;SDS011;9558;50.178;8.370;2024-03-08T04:26:14;15.60;;;6.18;;
18857;SDS011;9558;50.178;8.370;2024-03-08T04:29:01;13.25;;;6.35;;
18857;SDS011;9558;50.178;8.370;2024-03-08T04:31:48;13.68;;;6.20;;
18857;SDS011;9558;50.178;8.370;2024-03-08T04:34:36;10.52;;;4.15;;
18857;SDS011;9558;50.178;8.370;2024-03-08T04:37:23;21.80;;;7.05;;
18857;SDS011;9558;50.178;8.370;2024-03-08T04:40:11;14.98;;;6.88;;
18857;SDS011;9558;50.178;8.370;2024-03-08T04:45:45;17.83;;;6.25;;
18857;SDS011;9558;50.178;8.370;2024-03-08T04:48:33;14.10;;;5.53;;
18857;SDS011;9558;50.178;8.370;2024-03-08T04:51:23;11.93;;;6.18;;
18857;SDS011;9558;50.178;8.370;2024-03-08T04:54:10;10.82;;;5.22;;
18857;SDS011;9558;50.178;8.370;2024-03-08T04:56:57;13.80;;;6.05;;
18857;SDS011;9558;50.178;8.370;2024-03-08T04:59:45;13.45;;;5.88;;
18857;SDS011;9558;50.178;8.370;2024-03-08T05:02:32;13.35;;;6.95;;
18857;SDS011;9558;50.178;8.370;2024-03-08T05:05:21;14.75;;;6.18;;
18857;SDS011;9558;50.178;8.370;2024-03-08T05:10:57;11.57;;;5.60;;
18857;SDS011;9558;50.178;8.370;2024-03-08T05:16:31;11.30;;;4.95;;
18857;SDS011;9558;50.178;8.370;2024-03-08T05:19:18;16.52;;;6.85;;
18857;SDS011;9558;50.178;8.370;2024-03-08T05:22:06;15.52;;;6.30;;
18857;SDS011;9558;50.178;8.370;2024-03-08T05:24:55;8.00;;;4.40;;
18857;SDS011;9558;50.178;8.370;2024-03-08T05:27:42;15.02;;;6.95;;
18857;SDS011;9558;50.178;8.370;2024-03-08T05:30:29;13.98;;;6.50;;
18857;SDS011;9558;50.178;8.370;2024-03-08T05:33:17;16.50;;;6.70;;
18857;SDS011;9558;50.178;8.370;2024-03-08T05:36:05;18.48;;;7.80;;
18857;SDS011;9558;50.178;8.370;2024-03-08T05:38:52;18.10;;;7.63;;
18857;SDS011;9558;50.178;8.370;2024-03-08T05:41:41;13.70;;;6.50;;
18857;SDS011;9558;50.178;8.370;2024-03-08T05:44:28;13.60;;;6.85;;
18857;SDS011;9558;50.178;8.370;2024-03-08T05:47:16;15.43;;;7.28;;
18857;SDS011;9558;50.178;8.370;2024-03-08T05:50:04;13.48;;;6.00;;
18857;SDS011;9558;50.178;8.370;2024-03-08T05:52:52;18.30;;;6.80;;
18857;SDS011;9558;50.178;8.370;2024-03-08T05:55:40;12.73;;;5.63;;
18857;SDS011;9558;50.178;8.370;2024-03-08T05:58:29;11.85;;;5.68;;
18857;SDS011;9558;50.178;8.370;2024-03-08T06:01:16;14.88;;;6.72;;
18857;SDS011;9558;50.178;8.370;2024-03-08T06:06:50;11.77;;;5.82;;
18857;SDS011;9558;50.178;8.370;2024-03-08T06:09:41;13.65;;;6.35;;
18857;SDS011;9558;50.178;8.370;2024-03-08T06:12:30;23.08;;;6.60;;
18857;SDS011;9558;50.178;8.370;2024-03-08T06:15:23;18.88;;;7.75;;
18857;SDS011;9558;50.178;8.370;2024-03-08T06:18:10;14.85;;;6.07;;
18857;SDS011;9558;50.178;8.370;2024-03-08T06:23:44;13.88;;;5.47;;
18857;SDS011;9558;50.178;8.370;2024-03-08T06:29:19;15.57;;;4.90;;
18857;SDS011;9558;50.178;8.370;2024-03-08T06:32:08;11.13;;;5.18;;
18857;SDS011;9558;50.178;8.370;2024-03-08T06:34:55;15.30;;;6.50;;
18857;SDS011;9558;50.178;8.370;2024-03-08T06:37:42;13.18;;;5.28;;
18857;SDS011;9558;50.178;8.370;2024-03-08T06:40:29;12.40;;;6.10;;
18857;SDS011;9558;50.178;8.370;2024-03-08T06:46:03;15.88;;;6.32;;
18857;SDS011;9558;50.178;8.370;2024-03-08T06:51:39;14.57;;;4.25;;
18857;SDS011;9558;50.178;8.370;2024-03-08T06:54:26;15.45;;;6.43;;
18857;SDS011;9558;50.178;8.370;2024-03-08T06:57:13;11.98;;;6.30;;
18857;SDS011;9558;50.178;8.370;2024-03-08T07:00:02;15.65;;;5.75;;
18857;SDS011;9558;50.178;8.370;2024-03-08T07:02:49;22.83;;;6.00;;
18857;SDS011;9558;50.178;8.370;2024-03-08T07:05:40;16.15;;;6.68;;
18857;SDS011;9558;50.178;8.370;2024-03-08T07:08:27;13.32;;;5.78;;
18857;SDS011;9558;50.178;8.370;2024-03-08T07:11:15;15.20;;;6.90;;
18857;SDS011;9558;50.178;8.370;2024-03-08T07:14:03;20.63;;;7.75;;
18857;SDS011;9558;50.178;8.370;2024-03-08T07:16:52;14.52;;;6.30;;
18857;SDS011;9558;50.178;8.370;2024-03-08T07:22:27;15.43;;;6.75;;
18857;SDS011;9558;50.178;8.370;2024-03-08T07:25:14;9.27;;;5.05;;
18857;SDS011;9558;50.178;8.370;2024-03-08T07:28:06;10.50;;;5.75;;
18857;SDS011;9558;50.178;8.370;2024-03-08T07:33:53;19.45;;;7.63;;
18857;SDS011;9558;50.178;8.370;2024-03-08T07:36:40;12.73;;;6.93;;
18857;SDS011;9558;50.178;8.370;2024-03-08T07:42:15;12.43;;;5.38;;
18857;SDS011;9558;50.178;8.370;2024-03-08T07:45:03;14.55;;;6.80;;
18857;SDS011;9558;50.178;8.370;2024-03-08T07:47:53;13.52;;;6.30;;
18857;SDS011;9558;50.178;8.370;2024-03-08T07:50:41;12.88;;;5.22;;
18857;SDS011;9558;50.178;8.370;2024-03-08T07:53:28;12.75;;;6.15;;
18857;SDS011;9558;50.178;8.370;2024-03-08T07:56:17;16.45;;;6.50;;
18857;SDS011;9558;50.178;8.370;2024-03-08T07:59:04;14.38;;;6.65;;
18857;SDS011;9558;50.178;8.370;2024-03-08T08:01:51;15.63;;;6.50;;
18857;SDS011;9558;50.178;8.370;2024-03-08T08:04:38;14.25;;;6.07;;
18857;SDS011;9558;50.178;8.370;2024-03-08T08:07:26;14.65;;;6.78;;
18857;SDS011;9558;50.178;8.370;2024-03-08T08:10:14;12.80;;;6.18;;
18857;SDS011;9558;50.178;8.370;2024-03-08T08:13:05;16.00;;;6.97;;
18857;SDS011;9558;50.178;8.370;2024-03-08T08:15:52;16.92;;;7.25;;
18857;SDS011;9558;50.178;8.370;2024-03-08T08:18:39;16.05;;;7.35;;
18857;SDS011;9558;50.178;8.370;2024-03-08T08:21:26;16.90;;;7.82;;
18857;SDS011;9558;50.178;8.370;2024-03-08T08:24:13;14.65;;;7.38;;
18857;SDS011;9558;50.178;8.370;2024-03-08T08:27:00;11.52;;;6.57;;
18857;SDS011;9558;50.178;8.370;2024-03-08T08:29:49;12.23;;;5.90;;
18857;SDS011;9558;50.178;8.370;2024-03-08T08:32:36;13.48;;;6.68;;
18857;SDS011;9558;50.178;8.370;2024-03-08T08:35:24;12.55;;;6.53;;
18857;SDS011;9558;50.178;8.370;2024-03-08T08:38:11;11.88;;;6.70;;
18857;SDS011;9558;50.178;8.370;2024-03-08T08:40:58;14.32;;;7.18;;
18857;SDS011;9558;50.178;8.370;2024-03-08T08:43:47;18.13;;;7.32;;
18857;SDS011;9558;50.178;8.370;2024-03-08T08:46:36;13.43;;;6.65;;
18857;SDS011;9558;50.178;8.370;2024-03-08T08:49:23;14.93;;;7.45;;
18857;SDS011;9558;50.178;8.370;2024-03-08T08:52:13;14.98;;;7.63;;
18857;SDS011;9558;50.178;8.370;2024-03-08T08:55:02;14.77;;;6.85;;
18857;SDS011;9558;50.178;8.370;2024-03-08T08:57:50;17.20;;;7.47;;
18857;SDS011;9558;50.178;8.370;2024-03-08T09:00:38;19.73;;;7.75;;
18857;SDS011;9558;50.178;8.370;2024-03-08T09:03:26;15.82;;;8.13;;
18857;SDS011;9558;50.178;8.370;2024-03-08T09:06:14;19.30;;;8.25;;
18857;SDS011;9558;50.178;8.370;2024-03-08T09:09:02;16.38;;;7.88;;
18857;SDS011;9558;50.178;8.370;2024-03-08T09:11:50;15.35;;;7.38;;
18857;SDS011;9558;50.178;8.370;2024-03-08T09:14:39;15.80;;;7.25;;
18857;SDS011;9558;50.178;8.370;2024-03-08T09:17:26;15.38;;;6.85;;
18857;SDS011;9558;50.178;8.370;2024-03-08T09:20:15;15.13;;;7.72;;
18857;SDS011;9558;50.178;8.370;2024-03-08T09:23:03;15.82;;;6.55;;
18857;SDS011;9558;50.178;8.370;2024-03-08T09:25:50;18.10;;;8.05;;
18857;SDS011;9558;50.178;8.370;2024-03-08T09:28:37;16.23;;;7.57;;
18857;SDS011;9558;50.178;8.370;2024-03-08T09:31:24;14.57;;;7.32;;
18857;SDS011;9558;50.178;8.370;2024-03-08T09:34:12;20.15;;;8.40;;
18857;SDS011;9558;50.178;8.370;2024-03-08T09:37:00;15.68;;;7.05;;
18857;SDS011;9558;50.178;8.370;2024-03-08T09:39:49;17.17;;;7.47;;
18857;SDS011;9558;50.178;8.370;2024-03-08T09:42:36;17.70;;;7.80;;
18857;SDS011;9558;50.178;8.370;2024-03-08T09:45:24;12.90;;;6.25;;
18857;SDS011;9558;50.178;8.370;2024-03-08T09:48:12;16.77;;;7.45;;
18857;SDS011;9558;50.178;8.370;2024-03-08T09:51:00;16.48;;;7.25;;
18857;SDS011;9558;50.178;8.370;2024-03-08T09:53:49;13.68;;;6.72;;
18857;SDS011;9558;50.178;8.370;2024-03-08T09:56:36;16.70;;;7.00;;
18857;SDS011;9558;50.178;8.370;2024-03-08T09:59:29;15.70;;;7.68;;
18857;SDS011;9558;50.178;8.370;2024-03-08T10:02:29;17.05;;;7.70;;
18857;SDS011;9558;50.178;8.370;2024-03-08T10:05:17;17.25;;;7.05;;
18857;SDS011;9558;50.178;8.370;2024-03-08T10:08:06;13.07;;;5.85;;
18857;SDS011;9558;50.178;8.370;2024-03-08T10:10:55;13.35;;;5.82;;
18857;SDS011;9558;50.178;8.370;2024-03-08T10:13:44;13.25;;;6.90;;
18857;SDS011;9558;50.178;8.370;2024-03-08T10:16:31;16.38;;;7.55;;
18857;SDS011;9558;50.178;8.370;2024-03-08T10:19:19;13.98;;;5.97;;
18857;SDS011;9558;50.178;8.370;2024-03-08T10:22:07;11.60;;;4.95;;
18857;SDS011;9558;50.178;8.370;2024-03-08T10:25:01;17.83;;;7.10;;
18857;SDS011;9558;50.178;8.370;2024-03-08T10:27:52;14.18;;;6.50;;
18857;SDS011;9558;50.178;8.370;2024-03-08T10:30:46;12.77;;;6.20;;
18857;SDS011;9558;50.178;8.370;2024-03-08T10:33:34;16.02;;;6.60;;
18857;SDS011;9558;50.178;8.370;2024-03-08T10:36:23;16.08;;;6.47;;
18857;SDS011;9558;50.178;8.370;2024-03-08T10:39:12;15.52;;;6.13;;
18857;SDS011;9558;50.178;8.370;2024-03-08T10:42:08;12.82;;;6.10;;
18857;SDS011;9558;50.178;8.370;2024-03-08T10:45:05;10.15;;;5.00;;
18857;SDS011;9558;50.178;8.370;2024-03-08T10:48:07;14.90;;;6.55;;
18857;SDS011;9558;50.178;8.370;2024-03-08T10:51:08;11.65;;;5.65;;
18857;SDS011;9558;50.178;8.370;2024-03-08T10:53:58;14.38;;;5.72;;
18857;SDS011;9558;50.178;8.370;2024-03-08T10:56:48;12.85;;;5.13;;
18857;SDS011;9558;50.178;8.370;2024-03-08T10:59:36;10.48;;;5.28;;
18857;SDS011;9558;50.178;8.370;2024-03-08T11:02:26;15.57;;;4.80;;
18857;SDS011;9558;50.178;8.370;2024-03-08T11:05:15;17.10;;;6.63;;
18857;SDS011;9558;50.178;8.370;2024-03-08T11:08:20;11.82;;;5.43;;
18857;SDS011;9558;50.178;8.370;2024-03-08T11:11:23;12.75;;;6.07;;
18857;SDS011;9558;50.178;8.370;2024-03-08T11:14:42;13.27;;;5.57;;
18857;SDS011;9558;50.178;8.370;2024-03-08T11:17:47;15.98;;;6.70;;
18857;SDS011;9558;50.178;8.370;2024-03-08T11:20:34;12.93;;;5.95;;
18857;SDS011;9558;50.178;8.370;2024-03-08T11:23:22;8.52;;;4.63;;
18857;SDS011;9558;50.178;8.370;2024-03-08T11:26:18;12.98;;;5.63;;
18857;SDS011;9558;50.178;8.370;2024-03-08T11:32:23;13.57;;;5.13;;
18857;SDS011;9558;50.178;8.370;2024-03-08T11:35:19;8.98;;;4.75;;
18857;SDS011;9558;50.178;8.370;2024-03-08T11:38:08;10.13;;;5.15;;
18857;SDS011;9558;50.178;8.370;2024-03-08T11:40:56;12.85;;;5.47;;
18857;SDS011;9558;50.178;8.370;2024-03-08T11:43:44;15.82;;;5.78;;
18857;SDS011;9558;50.178;8.370;2024-03-08T11:46:31;10.40;;;4.60;;
18857;SDS011;9558;50.178;8.370;2024-03-08T11:49:19;8.45;;;3.42;;
18857;SDS011;9558;50.178;8.370;2024-03-08T11:52:09;12.32;;;5.00;;
18857;SDS011;9558;50.178;8.370;2024-03-08T11:54:58;9.05;;;3.47;;
18857;SDS011;9558;50.178;8.370;2024-03-08T11:57:45;12.48;;;4.93;;
18857;SDS011;9558;50.178;8.370;2024-03-08T12:00:33;8.52;;;4.85;;
18857;SDS011;9558;50.178;8.370;2024-03-08T12:03:24;11.90;;;4.88;;
18857;SDS011;9558;50.178;8.370;2024-03-08T12:06:11;9.43;;;3.78;;
18857;SDS011;9558;50.178;8.370;2024-03-08T12:09:00;8.55;;;4.22;;
18857;SDS011;9558;50.178;8.370;2024-03-08T12:11:48;9.55;;;4.30;;
18857;SDS011;9558;50.178;8.370;2024-03-08T12:14:36;11.43;;;4.40;;
18857;SDS011;9558;50.178;8.370;2024-03-08T12:17:23;7.47;;;3.47;;
18857;SDS011;9558;50.178;8.370;2024-03-08T12:20:11;12.38;;;4.70;;
18857;SDS011;9558;50.178;8.370;2024-03-08T12:22:59;13.05;;;4.70;;
18857;SDS011;9558;50.178;8.370;2024-03-08T12:25:48;12.82;;;4.82;;
18857;SDS011;9558;50.178;8.370;2024-03-08T12:28:35;5.65;;;3.08;;
18857;SDS011;9558;50.178;8.370;2024-03-08T12:31:22;9.95;;;4.13;;
18857;SDS011;9558;50.178;8.370;2024-03-08T12:34:11;10.02;;;4.65;;
18857;SDS011;9558;50.178;8.370;2024-03-08T12:36:58;11.30;;;5.43;;
18857;SDS011;9558;50.178;8.370;2024-03-08T12:39:46;13.77;;;5.00;;
18857;SDS011;9558;50.178;8.370;2024-03-08T12:42:34;8.32;;;4.43;;
18857;SDS011;9558;50.178;8.370;2024-03-08T12:45:22;4.80;;;2.63;;
18857;SDS011;9558;50.178;8.370;2024-03-08T12:48:12;8.50;;;4.10;;
18857;SDS011;9558;50.178;8.370;2024-03-08T12:51:00;11.40;;;4.72;;
18857;SDS011;9558;50.178;8.370;2024-03-08T12:53:48;11.05;;;4.93;;
18857;SDS011;9558;50.178;8.370;2024-03-08T12:59:29;12.90;;;5.35;;
18857;SDS011;9558;50.178;8.370;2024-03-08T13:02:16;9.73;;;4.10;;
18857;SDS011;9558;50.178;8.370;2024-03-08T13:05:03;13.07;;;5.20;;
18857;SDS011;9558;50.178;8.370;2024-03-08T13:07:51;12.07;;;4.68;;
18857;SDS011;9558;50.178;8.370;2024-03-08T13:10:38;10.07;;;4.82;;
18857;SDS011;9558;50.178;8.370;2024-03-08T13:13:28;11.70;;;5.10;;
18857;SDS011;9558;50.178;8.370;2024-03-08T13:16:17;11.50;;;5.07;;
18857;SDS011;9558;50.178;8.370;2024-03-08T13:19:04;10.50;;;4.95;;
18857;SDS011;9558;50.178;8.370;2024-03-08T13:21:51;11.10;;;5.60;;
18857;SDS011;9558;50.178;8.370;2024-03-08T13:24:39;9.43;;;4.50;;
18857;SDS011;9558;50.178;8.370;2024-03-08T13:27:27;13.15;;;5.32;;
18857;SDS011;9558;50.178;8.370;2024-03-08T13:30:14;8.32;;;3.72;;
18857;SDS011;9558;50.178;8.370;2024-03-08T13:33:05;9.98;;;5.32;;
18857;SDS011;9558;50.178;8.370;2024-03-08T13:35:52;14.88;;;6.13;;
18857;SDS011;9558;50.178;8.370;2024-03-08T13:38:40;12.25;;;5.63;;
18857;SDS011;9558;50.178;8.370;2024-03-08T13:41:29;14.23;;;4.95;;
18857;SDS011;9558;50.178;8.370;2024-03-08T13:44:16;14.32;;;5.53;;
18857;SDS011;9558;50.178;8.370;2024-03-08T13:47:03;12.07;;;5.80;;
18857;SDS011;9558;50.178;8.370;2024-03-08T13:49:54;11.02;;;5.00;;
18857;SDS011;9558;50.178;8.370;2024-03-08T13:52:41;10.02;;;4.18;;
18857;SDS011;9558;50.178;8.370;2024-03-08T13:55:29;11.52;;;5.30;;
18857;SDS011;9558;50.178;8.370;2024-03-08T13:58:16;12.57;;;5.43;;
18857;SDS011;9558;50.178;8.370;2024-03-08T14:01:03;12.27;;;5.53;;
18857;SDS011;9558;50.178;8.370;2024-03-08T14:03:56;12.43;;;5.88;;
18857;SDS011;9558;50.178;8.370;2024-03-08T14:06:46;12.20;;;4.22;;
18857;SDS011;9558;50.178;8.370;2024-03-08T14:09:34;11.75;;;5.38;;
18857;SDS011;9558;50.178;8.370;2024-03-08T14:12:22;11.50;;;5.35;;
18857;SDS011;9558;50.178;8.370;2024-03-08T14:15:11;13.57;;;5.55;;
18857;SDS011;9558;50.178;8.370;2024-03-08T14:17:59;10.93;;;5.22;;
18857;SDS011;9558;50.178;8.370;2024-03-08T14:20:46;11.10;;;5.03;;
18857;SDS011;9558;50.178;8.370;2024-03-08T14:23:35;11.25;;;5.43;;
18857;SDS011;9558;50.178;8.370;2024-03-08T14:26:22;12.43;;;5.15;;
18857;SDS011;9558;50.178;8.370;2024-03-08T14:29:15;13.25;;;5.38;;
18857;SDS011;9558;50.178;8.370;2024-03-08T14:32:18;10.68;;;5.25;;
18857;SDS011;9558;50.178;8.370;2024-03-08T14:35:08;15.00;;;5.82;;
18857;SDS011;9558;50.178;8.370;2024-03-08T14:37:56;11.02;;;5.28;;
18857;SDS011;9558;50.178;8.370;2024-03-08T14:40:45;11.30;;;5.40;;
18857;SDS011;9558;50.178;8.370;2024-03-08T14:43:33;19.90;;;5.95;;
18857;SDS011;9558;50.178;8.370;2024-03-08T14:46:20;14.13;;;6.13;;
18857;SDS011;9558;50.178;8.370;2024-03-08T14:49:08;10.98;;;5.28;;
18857;SDS011;9558;50.178;8.370;2024-03-08T14:51:55;8.88;;;4.38;;
18857;SDS011;9558;50.178;8.370;2024-03-08T14:54:43;12.02;;;5.53;;
18857;SDS011;9558;50.178;8.370;2024-03-08T14:57:41;12.98;;;5.75;;
18857;SDS011;9558;50.178;8.370;2024-03-08T15:00:30;11.07;;;5.43;;
18857;SDS011;9558;50.178;8.370;2024-03-08T15:03:20;13.20;;;6.03;;
18857;SDS011;9558;50.178;8.370;2024-03-08T15:06:10;15.48;;;5.63;;
18857;SDS011;9558;50.178;8.370;2024-03-08T15:08:57;14.23;;;7.05;;
18857;SDS011;9558;50.178;8.370;2024-03-08T15:11:44;12.20;;;5.75;;
18857;SDS011;9558;50.178;8.370;2024-03-08T15:14:39;14.02;;;6.45;;
18857;SDS011;9558;50.178;8.370;2024-03-08T15:17:28;13.43;;;5.40;;
18857;SDS011;9558;50.178;8.370;2024-03-08T15:20:16;15.23;;;5.68;;
18857;SDS011;9558;50.178;8.370;2024-03-08T15:23:09;13.00;;;5.32;;
18857;SDS011;9558;50.178;8.370;2024-03-08T15:25:56;11.75;;;5.38;;
18857;SDS011;9558;50.178;8.370;2024-03-08T15:28:43;16.15;;;6.22;;
18857;SDS011;9558;50.178;8.370;2024-03-08T15:31:32;17.10;;;5.80;;
18857;SDS011;9558;50.178;8.370;2024-03-08T15:34:20;12.63;;;5.60;;
18857;SDS011;9558;50.178;8.370;2024-03-08T15:37:09;11.98;;;5.13;;
18857;SDS011;9558;50.178;8.370;2024-03-08T15:40:00;12.45;;;5.38;;
18857;SDS011;9558;50.178;8.370;2024-03-08T15:42:54;9.85;;;5.13;;
18857;SDS011;9558;50.178;8.370;2024-03-08T15:45:42;12.20;;;5.45;;
18857;SDS011;9558;50.178;8.370;2024-03-08T15:48:31;11.32;;;5.25;;
18857;SDS011;9558;50.178;8.370;2024-03-08T15:51:20;12.80;;;5.30;;
18857;SDS011;9558;50.178;8.370;2024-03-08T15:54:07;10.45;;;4.55;;
18857;SDS011;9558;50.178;8.370;2024-03-08T15:56:55;13.32;;;5.90;;
18857;SDS011;9558;50.178;8.370;2024-03-08T15:59:43;12.13;;;5.15;;
18857;SDS011;9558;50.178;8.370;2024-03-08T16:02:31;13.25;;;5.38;;
18857;SDS011;9558;50.178;8.370;2024-03-08T16:05:20;12.15;;;5.40;;
18857;SDS011;9558;50.178;8.370;2024-03-08T16:08:07;13.52;;;5.05;;
18857;SDS011;9558;50.178;8.370;2024-03-08T16:11:00;10.98;;;5.07;;
18857;SDS011;9558;50.178;8.370;2024-03-08T16:13:51;11.90;;;4.15;;
18857;SDS011;9558;50.178;8.370;2024-03-08T16:16:38;10.27;;;5.03;;
18857;SDS011;9558;50.178;8.370;2024-03-08T16:19:25;9.55;;;4.45;;
18857;SDS011;9558;50.178;8.370;2024-03-08T16:22:13;9.73;;;4.53;;
18857;SDS011;9558;50.178;8.370;2024-03-08T16:25:03;11.23;;;5.25;;
18857;SDS011;9558;50.178;8.370;2024-03-08T16:27:55;9.27;;;4.35;;
18857;SDS011;9558;50.178;8.370;2024-03-08T16:30:43;9.95;;;4.95;;
18857;SDS011;9558;50.178;8.370;2024-03-08T16:33:33;9.52;;;4.70;;
18857;SDS011;9558;50.178;8.370;2024-03-08T16:36:21;10.63;;;5.10;;
18857;SDS011;9558;50.178;8.370;2024-03-08T16:39:09;9.65;;;4.30;;
18857;SDS011;9558;50.178;8.370;2024-03-08T16:41:57;9.05;;;4.53;;
18857;SDS011;9558;50.178;8.370;2024-03-08T16:44:44;11.15;;;4.60;;
18857;SDS011;9558;50.178;8.370;2024-03-08T16:47:31;7.15;;;3.22;;
18857;SDS011;9558;50.178;8.370;2024-03-08T16:50:18;11.32;;;4.85;;
18857;SDS011;9558;50.178;8.370;2024-03-08T16:53:05;9.82;;;4.45;;
18857;SDS011;9558;50.178;8.370;2024-03-08T16:55:53;9.75;;;4.20;;
18857;SDS011;9558;50.178;8.370;2024-03-08T16:58:42;12.10;;;4.93;;
18857;SDS011;9558;50.178;8.370;2024-03-08T17:01:30;12.95;;;4.45;;
18857;SDS011;9558;50.178;8.370;2024-03-08T17:04:18;9.73;;;3.58;;
18857;SDS011;9558;50.178;8.370;2024-03-08T17:07:05;7.20;;;3.67;;
18857;SDS011;9558;50.178;8.370;2024-03-08T17:09:54;10.05;;;5.00;;
18857;SDS011;9558;50.178;8.370;2024-03-08T17:12:44;10.77;;;4.07;;
18857;SDS011;9558;50.178;8.370;2024-03-08T17:15:33;9.90;;;4.47;;
18857;SDS011;9558;50.178;8.370;2024-03-08T17:18:21;9.23;;;4.28;;
18857;SDS011;9558;50.178;8.370;2024-03-08T17:21:08;9.00;;;4.78;;
18857;SDS011;9558;50.178;8.370;2024-03-08T17:23:58;9.80;;;3.72;;
18857;SDS011;9558;50.178;8.370;2024-03-08T17:26:46;7.43;;;3.60;;
18857;SDS011;9558;50.178;8.370;2024-03-08T17:29:35;7.13;;;3.70;;
18857;SDS011;9558;50.178;8.370;2024-03-08T17:32:23;8.70;;;4.13;;
18857;SDS011;9558;50.178;8.370;2024-03-08T17:35:10;7.70;;;3.58;;
18857;SDS011;9558;50.178;8.370;2024-03-08T17:37:57;9.48;;;4.38;;
18857;SDS011;9558;50.178;8.370;2024-03-08T17:40:45;12.70;;;3.83;;
18857;SDS011;9558;50.178;8.370;2024-03-08T17:43:33;8.68;;;3.67;;
18857;SDS011;9558;50.178;8.370;2024-03-08T17:46:22;8.73;;;3.97;;
18857;SDS011;9558;50.178;8.370;2024-03-08T17:49:10;7.82;;;3.83;;
18857;SDS011;9558;50.178;8.370;2024-03-08T17:51:58;8.52;;;3.63;;
18857;SDS011;9558;50.178;8.370;2024-03-08T17:54:49;11.35;;;4.10;;
18857;SDS011;9558;50.178;8.370;2024-03-08T17:57:37;8.13;;;3.60;;
18857;SDS011;9558;50.178;8.370;2024-03-08T18:00:25;14.70;;;4.28;;
18857;SDS011;9558;50.178;8.370;2024-03-08T18:03:15;7.53;;;3.40;;